sensor_id;sensor_type;location;lat;lon;timestamp;P1;durP1;ratioP1;P2;durP2;ratioP2
40072;SDS011;25774;52.256;9.356;2023-05-08T00:01:49;8.70;;;4.97;;
40072;SDS011;25774;52.256;9.356;2023-05-08T00:04:14;7.97;;;4.93;;
40072;SDS011;25774;52.256;9.356;2023-05-08T00:06:39;6.67;;;5.17;;
40072;SDS011;25774;52.256;9.356;2023-05-08T00:09:04;11.03;;;4.43;;
40072;SDS011;25774;52.256;9.356;2023-05-08T00:11:30;7.30;;;4.67;;
40072;SDS011;25774;52.256;9.356;2023-05-08T00:13:55;7.27;;;5.27;;
40072;SDS011;25774;52.256;9.356;2023-05-08T00:16:20;8.60;;;5.53;;
40072;SDS011;25774;52.256;9.356;2023-05-08T00:18:46;7.17;;;4.80;;
40072;SDS011;25774;52.256;9.356;2023-05-08T00:21:11;7.70;;;5.10;;
40072;SDS011;25774;52.256;9.356;2023-05-08T00:23:36;10.47;;;4.87;;
40072;SDS011;25774;52.256;9.356;2023-05-08T00:26:01;7.83;;;5.00;;
40072;SDS011;25774;52.256;9.356;2023-05-08T00:28:26;7.43;;;4.97;;
40072;SDS011;25774;52.256;9.356;2023-05-08T00:30:52;7.00;;;4.57;;
40072;SDS011;25774;52.256;9.356;2023-05-08T00:33:17;7.63;;;5.18;;
40072;SDS011;25774;52.256;9.356;2023-05-08T00:35:43;7.63;;;4.77;;
40072;SDS011;25774;52.256;9.356;2023-05-08T00:38:08;7.47;;;5.40;;
40072;SDS011;25774;52.256;9.356;2023-05-08T00:40:33;6.37;;;4.53;;
40072;SDS011;25774;52.256;9.356;2023-05-08T00:42:59;7.17;;;4.67;;
40072;SDS011;25774;52.256;9.356;2023-05-08T00:45:25;6.60;;;4.57;;
40072;SDS011;25774;52.256;9.356;2023-05-08T00:47:52;6.43;;;4.68;;
40072;SDS011;25774;52.256;9.356;2023-05-08T00:50:18;7.07;;;4.90;;
40072;SDS011;25774;52.256;9.356;2023-05-08T00:52:43;11.20;;;6.22;;
40072;SDS011;25774;52.256;9.356;2023-05-08T00:55:10;7.15;;;4.80;;
40072;SDS011;25774;52.256;9.356;2023-05-08T00:57:35;6.00;;;4.17;;
40072;SDS011;25774;52.256;9.356;2023-05-08T01:00:03;9.40;;;4.90;;
40072;SDS011;25774;52.256;9.356;2023-05-08T01:02:28;7.18;;;5.00;;
40072;SDS011;25774;52.256;9.356;2023-05-08T01:04:55;8.82;;;5.45;;
40072;SDS011;25774;52.256;9.356;2023-05-08T01:07:20;7.87;;;5.47;;
40072;SDS011;25774;52.256;9.356;2023-05-08T01:09:46;8.93;;;5.40;;
40072;SDS011;25774;52.256;9.356;2023-05-08T01:12:16;6.90;;;5.20;;
40072;SDS011;25774;52.256;9.356;2023-05-08T01:14:51;7.57;;;4.88;;
40072;SDS011;25774;52.256;9.356;2023-05-08T01:25:06;7.67;;;5.33;;
40072;SDS011;25774;52.256;9.356;2023-05-08T01:27:48;7.10;;;4.75;;
40072;SDS011;25774;52.256;9.356;2023-05-08T01:33:18;7.53;;;5.07;;
40072;SDS011;25774;52.256;9.356;2023-05-08T01:35:46;7.18;;;4.97;;
40072;SDS011;25774;52.256;9.356;2023-05-08T01:38:15;9.35;;;4.78;;
40072;SDS011;25774;52.256;9.356;2023-05-08T01:40:53;7.90;;;4.80;;
40072;SDS011;25774;52.256;9.356;2023-05-08T01:43:24;6.70;;;4.63;;
40072;SDS011;25774;52.256;9.356;2023-05-08T01:45:49;7.18;;;4.78;;
40072;SDS011;25774;52.256;9.356;2023-05-08T01:48:29;11.32;;;5.63;;
40072;SDS011;25774;52.256;9.356;2023-05-08T01:51:03;7.68;;;4.82;;
40072;SDS011;25774;52.256;9.356;2023-05-08T01:53:33;7.25;;;4.68;;
40072;SDS011;25774;52.256;9.356;2023-05-08T01:56:02;8.07;;;5.25;;
40072;SDS011;25774;52.256;9.356;2023-05-08T01:58:29;9.15;;;5.05;;
40072;SDS011;25774;52.256;9.356;2023-05-08T02:00:56;8.95;;;5.05;;
40072;SDS011;25774;52.256;9.356;2023-05-08T02:03:22;7.70;;;5.38;;
40072;SDS011;25774;52.256;9.356;2023-05-08T02:05:48;6.83;;;4.80;;
40072;SDS011;25774;52.256;9.356;2023-05-08T02:08:16;7.18;;;4.47;;
40072;SDS011;25774;52.256;9.356;2023-05-08T02:10:43;8.82;;;5.55;;
40072;SDS011;25774;52.256;9.356;2023-05-08T02:13:09;9.47;;;4.77;;
40072;SDS011;25774;52.256;9.356;2023-05-08T02:15:34;7.60;;;5.30;;
40072;SDS011;25774;52.256;9.356;2023-05-08T02:20:25;6.57;;;4.32;;
40072;SDS011;25774;52.256;9.356;2023-05-08T02:22:51;7.38;;;5.13;;
40072;SDS011;25774;52.256;9.356;2023-05-08T02:25:17;6.83;;;4.90;;
40072;SDS011;25774;52.256;9.356;2023-05-08T02:27:44;8.85;;;5.20;;
40072;SDS011;25774;52.256;9.356;2023-05-08T02:30:11;8.05;;;5.38;;
40072;SDS011;25774;52.256;9.356;2023-05-08T02:32:40;7.60;;;4.95;;
40072;SDS011;25774;52.256;9.356;2023-05-08T02:35:05;9.05;;;5.45;;
40072;SDS011;25774;52.256;9.356;2023-05-08T02:37:31;9.27;;;5.65;;
40072;SDS011;25774;52.256;9.356;2023-05-08T02:39:57;8.43;;;5.68;;
40072;SDS011;25774;52.256;9.356;2023-05-08T02:42:22;8.83;;;6.00;;
40072;SDS011;25774;52.256;9.356;2023-05-08T02:44:48;9.23;;;5.37;;
40072;SDS011;25774;52.256;9.356;2023-05-08T02:47:26;8.47;;;5.47;;
40072;SDS011;25774;52.256;9.356;2023-05-08T02:49:55;9.30;;;5.53;;
40072;SDS011;25774;52.256;9.356;2023-05-08T02:52:27;8.98;;;5.13;;
40072;SDS011;25774;52.256;9.356;2023-05-08T02:59:55;8.00;;;5.85;;
40072;SDS011;25774;52.256;9.356;2023-05-08T03:02:29;7.88;;;5.47;;
40072;SDS011;25774;52.256;9.356;2023-05-08T03:04:58;9.98;;;5.57;;
40072;SDS011;25774;52.256;9.356;2023-05-08T03:07:24;8.07;;;5.63;;
40072;SDS011;25774;52.256;9.356;2023-05-08T03:09:54;8.70;;;5.55;;
40072;SDS011;25774;52.256;9.356;2023-05-08T03:12:22;10.43;;;5.57;;
40072;SDS011;25774;52.256;9.356;2023-05-08T03:14:52;8.88;;;5.55;;
40072;SDS011;25774;52.256;9.356;2023-05-08T03:17:19;8.32;;;5.40;;
40072;SDS011;25774;52.256;9.356;2023-05-08T03:19:46;10.68;;;5.68;;
40072;SDS011;25774;52.256;9.356;2023-05-08T03:22:13;9.70;;;6.28;;
40072;SDS011;25774;52.256;9.356;2023-05-08T03:24:39;9.70;;;6.60;;
40072;SDS011;25774;52.256;9.356;2023-05-08T03:27:06;9.85;;;6.10;;
40072;SDS011;25774;52.256;9.356;2023-05-08T03:29:32;10.23;;;6.37;;
40072;SDS011;25774;52.256;9.356;2023-05-08T03:31:57;8.37;;;5.87;;
40072;SDS011;25774;52.256;9.356;2023-05-08T03:34:24;13.02;;;6.10;;
40072;SDS011;25774;52.256;9.356;2023-05-08T03:36:50;11.40;;;6.43;;
40072;SDS011;25774;52.256;9.356;2023-05-08T03:39:15;10.20;;;6.05;;
40072;SDS011;25774;52.256;9.356;2023-05-08T03:41:41;8.57;;;5.70;;
40072;SDS011;25774;52.256;9.356;2023-05-08T03:44:06;8.50;;;5.73;;
40072;SDS011;25774;52.256;9.356;2023-05-08T03:46:32;8.37;;;5.90;;
40072;SDS011;25774;52.256;9.356;2023-05-08T03:48:58;8.68;;;6.07;;
40072;SDS011;25774;52.256;9.356;2023-05-08T03:51:26;8.27;;;6.20;;
40072;SDS011;25774;52.256;9.356;2023-05-08T03:53:53;8.90;;;6.32;;
40072;SDS011;25774;52.256;9.356;2023-05-08T03:56:18;8.65;;;5.72;;
40072;SDS011;25774;52.256;9.356;2023-05-08T03:59:08;9.43;;;7.03;;
40072;SDS011;25774;52.256;9.356;2023-05-08T04:06:30;7.25;;;5.50;;
40072;SDS011;25774;52.256;9.356;2023-05-08T04:09:03;9.40;;;6.32;;
40072;SDS011;25774;52.256;9.356;2023-05-08T04:11:31;10.18;;;6.78;;
40072;SDS011;25774;52.256;9.356;2023-05-08T04:14:00;7.57;;;5.50;;
40072;SDS011;25774;52.256;9.356;2023-05-08T04:16:27;12.20;;;7.43;;
40072;SDS011;25774;52.256;9.356;2023-05-08T04:18:57;9.13;;;6.45;;
40072;SDS011;25774;52.256;9.356;2023-05-08T04:21:23;9.05;;;5.93;;
40072;SDS011;25774;52.256;9.356;2023-05-08T04:23:49;9.77;;;6.50;;
40072;SDS011;25774;52.256;9.356;2023-05-08T04:26:15;8.40;;;5.57;;
40072;SDS011;25774;52.256;9.356;2023-05-08T04:28:41;11.43;;;7.60;;
40072;SDS011;25774;52.256;9.356;2023-05-08T04:31:06;10.37;;;6.60;;
40072;SDS011;25774;52.256;9.356;2023-05-08T04:33:32;9.07;;;5.90;;
40072;SDS011;25774;52.256;9.356;2023-05-08T04:35:59;10.27;;;6.50;;
40072;SDS011;25774;52.256;9.356;2023-05-08T04:38:26;9.95;;;6.38;;
40072;SDS011;25774;52.256;9.356;2023-05-08T04:40:51;9.75;;;6.57;;
40072;SDS011;25774;52.256;9.356;2023-05-08T04:43:16;10.53;;;7.10;;
40072;SDS011;25774;52.256;9.356;2023-05-08T04:45:41;10.00;;;6.40;;
40072;SDS011;25774;52.256;9.356;2023-05-08T04:48:06;10.67;;;7.17;;
40072;SDS011;25774;52.256;9.356;2023-05-08T04:50:32;10.20;;;6.57;;
40072;SDS011;25774;52.256;9.356;2023-05-08T04:52:57;9.67;;;7.00;;
40072;SDS011;25774;52.256;9.356;2023-05-08T04:55:23;9.13;;;6.67;;
40072;SDS011;25774;52.256;9.356;2023-05-08T04:57:48;10.45;;;6.45;;
40072;SDS011;25774;52.256;9.356;2023-05-08T05:00:14;12.90;;;7.13;;
40072;SDS011;25774;52.256;9.356;2023-05-08T05:02:39;11.13;;;7.70;;
40072;SDS011;25774;52.256;9.356;2023-05-08T05:05:04;9.93;;;6.90;;
40072;SDS011;25774;52.256;9.356;2023-05-08T05:07:30;11.47;;;6.93;;
40072;SDS011;25774;52.256;9.356;2023-05-08T05:09:56;10.43;;;6.87;;
40072;SDS011;25774;52.256;9.356;2023-05-08T05:12:21;9.77;;;7.05;;
40072;SDS011;25774;52.256;9.356;2023-05-08T05:14:46;10.10;;;6.73;;
40072;SDS011;25774;52.256;9.356;2023-05-08T05:17:11;10.43;;;7.10;;
40072;SDS011;25774;52.256;9.356;2023-05-08T05:19:37;10.97;;;6.70;;
40072;SDS011;25774;52.256;9.356;2023-05-08T05:22:02;8.53;;;6.33;;
40072;SDS011;25774;52.256;9.356;2023-05-08T05:24:29;9.73;;;6.10;;
40072;SDS011;25774;52.256;9.356;2023-05-08T05:26:55;10.20;;;7.13;;
40072;SDS011;25774;52.256;9.356;2023-05-08T05:29:21;8.93;;;6.53;;
40072;SDS011;25774;52.256;9.356;2023-05-08T05:31:46;10.67;;;6.60;;
40072;SDS011;25774;52.256;9.356;2023-05-08T05:34:11;9.90;;;6.83;;
40072;SDS011;25774;52.256;9.356;2023-05-08T05:36:37;10.93;;;7.37;;
40072;SDS011;25774;52.256;9.356;2023-05-08T05:39:02;9.18;;;6.75;;
40072;SDS011;25774;52.256;9.356;2023-05-08T05:41:28;11.87;;;7.50;;
40072;SDS011;25774;52.256;9.356;2023-05-08T05:43:53;12.30;;;7.50;;
40072;SDS011;25774;52.256;9.356;2023-05-08T05:46:19;8.33;;;6.20;;
40072;SDS011;25774;52.256;9.356;2023-05-08T05:48:44;9.30;;;6.28;;
40072;SDS011;25774;52.256;9.356;2023-05-08T05:51:09;9.90;;;7.00;;
40072;SDS011;25774;52.256;9.356;2023-05-08T05:53:35;8.55;;;6.28;;
40072;SDS011;25774;52.256;9.356;2023-05-08T05:56:02;9.10;;;6.83;;
40072;SDS011;25774;52.256;9.356;2023-05-08T05:58:28;10.25;;;6.97;;
40072;SDS011;25774;52.256;9.356;2023-05-08T06:00:53;10.05;;;6.70;;
40072;SDS011;25774;52.256;9.356;2023-05-08T06:03:18;13.03;;;7.43;;
40072;SDS011;25774;52.256;9.356;2023-05-08T06:05:45;8.83;;;6.10;;
40072;SDS011;25774;52.256;9.356;2023-05-08T06:08:10;9.65;;;7.00;;
40072;SDS011;25774;52.256;9.356;2023-05-08T06:10:37;12.10;;;7.30;;
40072;SDS011;25774;52.256;9.356;2023-05-08T06:13:02;11.40;;;7.80;;
40072;SDS011;25774;52.256;9.356;2023-05-08T06:15:27;9.90;;;7.57;;
40072;SDS011;25774;52.256;9.356;2023-05-08T06:17:52;9.63;;;7.40;;
40072;SDS011;25774;52.256;9.356;2023-05-08T06:20:18;10.43;;;7.10;;
40072;SDS011;25774;52.256;9.356;2023-05-08T06:22:43;8.60;;;6.60;;
40072;SDS011;25774;52.256;9.356;2023-05-08T06:25:09;9.73;;;7.20;;
40072;SDS011;25774;52.256;9.356;2023-05-08T06:27:36;13.07;;;7.53;;
40072;SDS011;25774;52.256;9.356;2023-05-08T06:30:02;10.73;;;7.90;;
40072;SDS011;25774;52.256;9.356;2023-05-08T06:32:28;12.85;;;7.05;;
40072;SDS011;25774;52.256;9.356;2023-05-08T06:34:53;9.68;;;7.07;;
40072;SDS011;25774;52.256;9.356;2023-05-08T06:37:18;10.70;;;8.10;;
40072;SDS011;25774;52.256;9.356;2023-05-08T06:39:43;11.43;;;7.40;;
40072;SDS011;25774;52.256;9.356;2023-05-08T06:42:09;10.27;;;7.00;;
40072;SDS011;25774;52.256;9.356;2023-05-08T06:44:34;12.30;;;7.43;;
40072;SDS011;25774;52.256;9.356;2023-05-08T06:46:59;12.00;;;8.43;;
40072;SDS011;25774;52.256;9.356;2023-05-08T06:49:25;10.60;;;7.00;;
40072;SDS011;25774;52.256;9.356;2023-05-08T06:51:50;10.33;;;7.13;;
40072;SDS011;25774;52.256;9.356;2023-05-08T06:54:15;18.60;;;8.83;;
40072;SDS011;25774;52.256;9.356;2023-05-08T06:56:41;10.13;;;7.13;;
40072;SDS011;25774;52.256;9.356;2023-05-08T06:59:06;11.30;;;7.67;;
40072;SDS011;25774;52.256;9.356;2023-05-08T07:01:31;11.70;;;7.33;;
40072;SDS011;25774;52.256;9.356;2023-05-08T07:03:58;10.13;;;7.30;;
40072;SDS011;25774;52.256;9.356;2023-05-08T07:06:24;9.30;;;6.50;;
40072;SDS011;25774;52.256;9.356;2023-05-08T07:08:50;11.23;;;7.45;;
40072;SDS011;25774;52.256;9.356;2023-05-08T07:11:15;10.63;;;7.40;;
40072;SDS011;25774;52.256;9.356;2023-05-08T07:13:41;9.83;;;7.17;;
40072;SDS011;25774;52.256;9.356;2023-05-08T07:18:33;10.77;;;7.20;;
40072;SDS011;25774;52.256;9.356;2023-05-08T07:20:58;10.65;;;7.07;;
40072;SDS011;25774;52.256;9.356;2023-05-08T07:23:24;9.53;;;7.27;;
40072;SDS011;25774;52.256;9.356;2023-05-08T07:25:50;10.43;;;7.55;;
40072;SDS011;25774;52.256;9.356;2023-05-08T07:28:15;12.18;;;7.35;;
40072;SDS011;25774;52.256;9.356;2023-05-08T07:30:41;10.33;;;7.17;;
40072;SDS011;25774;52.256;9.356;2023-05-08T07:33:06;10.07;;;7.03;;
40072;SDS011;25774;52.256;9.356;2023-05-08T07:35:31;10.10;;;7.13;;
40072;SDS011;25774;52.256;9.356;2023-05-08T07:37:56;11.50;;;7.87;;
40072;SDS011;25774;52.256;9.356;2023-05-08T07:40:22;10.00;;;7.17;;
40072;SDS011;25774;52.256;9.356;2023-05-08T07:42:47;10.10;;;7.30;;
40072;SDS011;25774;52.256;9.356;2023-05-08T07:45:13;12.80;;;7.93;;
40072;SDS011;25774;52.256;9.356;2023-05-08T07:50:04;9.20;;;6.05;;
40072;SDS011;25774;52.256;9.356;2023-05-08T07:52:29;9.97;;;7.20;;
40072;SDS011;25774;52.256;9.356;2023-05-08T07:54:54;11.13;;;7.67;;
40072;SDS011;25774;52.256;9.356;2023-05-08T07:57:21;9.07;;;6.10;;
40072;SDS011;25774;52.256;9.356;2023-05-08T07:59:48;10.77;;;7.22;;
40072;SDS011;25774;52.256;9.356;2023-05-08T08:02:14;8.60;;;6.53;;
40072;SDS011;25774;52.256;9.356;2023-05-08T08:04:39;9.25;;;6.70;;
40072;SDS011;25774;52.256;9.356;2023-05-08T08:07:04;9.80;;;6.93;;
40072;SDS011;25774;52.256;9.356;2023-05-08T08:09:29;10.20;;;7.03;;
40072;SDS011;25774;52.256;9.356;2023-05-08T08:11:56;8.77;;;6.50;;
40072;SDS011;25774;52.256;9.356;2023-05-08T08:14:22;8.82;;;6.43;;
40072;SDS011;25774;52.256;9.356;2023-05-08T08:16:47;9.33;;;6.57;;
40072;SDS011;25774;52.256;9.356;2023-05-08T08:19:13;10.10;;;6.17;;
40072;SDS011;25774;52.256;9.356;2023-05-08T08:21:41;8.20;;;6.00;;
40072;SDS011;25774;52.256;9.356;2023-05-08T08:24:07;8.45;;;6.20;;
40072;SDS011;25774;52.256;9.356;2023-05-08T08:26:33;12.20;;;6.03;;
40072;SDS011;25774;52.256;9.356;2023-05-08T08:28:58;7.47;;;5.43;;
40072;SDS011;25774;52.256;9.356;2023-05-08T08:31:23;9.80;;;6.53;;
40072;SDS011;25774;52.256;9.356;2023-05-08T08:33:48;11.40;;;6.03;;
40072;SDS011;25774;52.256;9.356;2023-05-08T08:36:14;6.83;;;4.97;;
40072;SDS011;25774;52.256;9.356;2023-05-08T08:38:39;10.32;;;6.20;;
40072;SDS011;25774;52.256;9.356;2023-05-08T08:41:06;9.63;;;5.83;;
40072;SDS011;25774;52.256;9.356;2023-05-08T08:45:57;10.73;;;5.63;;
40072;SDS011;25774;52.256;9.356;2023-05-08T08:48:24;9.63;;;5.47;;
40072;SDS011;25774;52.256;9.356;2023-05-08T08:50:52;9.45;;;5.93;;
40072;SDS011;25774;52.256;9.356;2023-05-08T08:53:23;12.70;;;6.22;;
40072;SDS011;25774;52.256;9.356;2023-05-08T08:55:49;7.97;;;5.65;;
40072;SDS011;25774;52.256;9.356;2023-05-08T08:58:21;8.30;;;5.28;;
40072;SDS011;25774;52.256;9.356;2023-05-08T09:00:48;7.72;;;5.32;;
40072;SDS011;25774;52.256;9.356;2023-05-08T09:03:20;7.10;;;4.95;;
40072;SDS011;25774;52.256;9.356;2023-05-08T09:05:46;6.85;;;5.25;;
40072;SDS011;25774;52.256;9.356;2023-05-08T09:08:13;7.68;;;5.75;;
40072;SDS011;25774;52.256;9.356;2023-05-08T09:10:39;7.00;;;4.90;;
40072;SDS011;25774;52.256;9.356;2023-05-08T09:13:05;6.88;;;4.57;;
40072;SDS011;25774;52.256;9.356;2023-05-08T09:15:30;6.00;;;4.83;;
40072;SDS011;25774;52.256;9.356;2023-05-08T09:17:56;7.88;;;4.97;;
40072;SDS011;25774;52.256;9.356;2023-05-08T09:20:21;7.57;;;5.20;;
40072;SDS011;25774;52.256;9.356;2023-05-08T09:22:46;6.37;;;4.70;;
40072;SDS011;25774;52.256;9.356;2023-05-08T09:25:12;9.82;;;5.22;;
40072;SDS011;25774;52.256;9.356;2023-05-08T09:27:38;11.07;;;5.13;;
40072;SDS011;25774;52.256;9.356;2023-05-08T09:30:06;6.30;;;4.45;;
40072;SDS011;25774;52.256;9.356;2023-05-08T09:32:33;6.93;;;4.25;;
40072;SDS011;25774;52.256;9.356;2023-05-08T09:34:58;7.60;;;4.35;;
40072;SDS011;25774;52.256;9.356;2023-05-08T09:37:24;7.20;;;4.85;;
40072;SDS011;25774;52.256;9.356;2023-05-08T09:42:15;6.95;;;4.43;;
40072;SDS011;25774;52.256;9.356;2023-05-08T09:44:44;9.02;;;4.35;;
40072;SDS011;25774;52.256;9.356;2023-05-08T09:47:13;8.77;;;4.75;;
40072;SDS011;25774;52.256;9.356;2023-05-08T09:49:39;7.03;;;4.72;;
40072;SDS011;25774;52.256;9.356;2023-05-08T09:52:05;7.93;;;4.90;;
40072;SDS011;25774;52.256;9.356;2023-05-08T09:54:31;7.03;;;4.43;;
40072;SDS011;25774;52.256;9.356;2023-05-08T09:56:56;6.40;;;4.13;;
40072;SDS011;25774;52.256;9.356;2023-05-08T09:59:25;6.43;;;4.27;;
40072;SDS011;25774;52.256;9.356;2023-05-08T10:01:51;7.38;;;4.97;;
40072;SDS011;25774;52.256;9.356;2023-05-08T10:04:16;7.25;;;4.55;;
40072;SDS011;25774;52.256;9.356;2023-05-08T10:06:42;5.53;;;4.20;;
40072;SDS011;25774;52.256;9.356;2023-05-08T10:09:11;6.43;;;4.68;;
40072;SDS011;25774;52.256;9.356;2023-05-08T10:11:37;8.82;;;4.60;;
40072;SDS011;25774;52.256;9.356;2023-05-08T10:14:02;6.47;;;3.85;;
40072;SDS011;25774;52.256;9.356;2023-05-08T10:16:28;6.50;;;4.50;;
40072;SDS011;25774;52.256;9.356;2023-05-08T10:18:54;6.68;;;5.00;;
40072;SDS011;25774;52.256;9.356;2023-05-08T10:21:24;7.55;;;3.95;;
40072;SDS011;25774;52.256;9.356;2023-05-08T10:23:52;7.10;;;4.35;;
40072;SDS011;25774;52.256;9.356;2023-05-08T10:26:23;6.25;;;4.13;;
40072;SDS011;25774;52.256;9.356;2023-05-08T10:28:53;5.60;;;3.78;;
40072;SDS011;25774;52.256;9.356;2023-05-08T10:31:19;6.32;;;4.13;;
40072;SDS011;25774;52.256;9.356;2023-05-08T10:33:45;5.93;;;3.70;;
40072;SDS011;25774;52.256;9.356;2023-05-08T10:36:16;6.45;;;3.95;;
40072;SDS011;25774;52.256;9.356;2023-05-08T10:38:41;5.60;;;3.30;;
40072;SDS011;25774;52.256;9.356;2023-05-08T10:41:07;6.32;;;3.55;;
40072;SDS011;25774;52.256;9.356;2023-05-08T10:43:33;6.55;;;3.60;;
40072;SDS011;25774;52.256;9.356;2023-05-08T10:46:05;4.82;;;3.40;;
40072;SDS011;25774;52.256;9.356;2023-05-08T10:51:20;6.63;;;4.20;;
40072;SDS011;25774;52.256;9.356;2023-05-08T10:53:58;8.50;;;3.92;;
40072;SDS011;25774;52.256;9.356;2023-05-08T10:56:26;6.22;;;4.10;;
40072;SDS011;25774;52.256;9.356;2023-05-08T11:01:17;5.28;;;3.72;;
40072;SDS011;25774;52.256;9.356;2023-05-08T11:03:44;6.45;;;3.22;;
40072;SDS011;25774;52.256;9.356;2023-05-08T11:06:10;10.63;;;3.85;;
40072;SDS011;25774;52.256;9.356;2023-05-08T11:11:04;9.93;;;3.77;;
40072;SDS011;25774;52.256;9.356;2023-05-08T11:15:58;4.63;;;3.28;;
40072;SDS011;25774;52.256;9.356;2023-05-08T11:20:58;19.73;;;4.85;;
40072;SDS011;25774;52.256;9.356;2023-05-08T11:23:32;37.45;;;5.75;;
40072;SDS011;25774;52.256;9.356;2023-05-08T11:26:04;17.10;;;4.45;;
40072;SDS011;25774;52.256;9.356;2023-05-08T11:28:30;6.38;;;3.45;;
40072;SDS011;25774;52.256;9.356;2023-05-08T11:33:21;20.60;;;4.93;;
40072;SDS011;25774;52.256;9.356;2023-05-08T11:45:55;6.60;;;4.53;;
40072;SDS011;25774;52.256;9.356;2023-05-08T11:48:23;6.70;;;4.25;;
40072;SDS011;25774;52.256;9.356;2023-05-08T11:53:13;8.50;;;4.10;;
40072;SDS011;25774;52.256;9.356;2023-05-08T11:58:10;14.88;;;4.63;;
40072;SDS011;25774;52.256;9.356;2023-05-08T12:00:39;6.38;;;3.42;;
40072;SDS011;25774;52.256;9.356;2023-05-08T12:03:05;5.55;;;3.40;;
40072;SDS011;25774;52.256;9.356;2023-05-08T12:05:31;14.75;;;4.25;;
40072;SDS011;25774;52.256;9.356;2023-05-08T12:07:57;13.43;;;5.03;;
40072;SDS011;25774;52.256;9.356;2023-05-08T12:10:25;7.97;;;4.45;;
40072;SDS011;25774;52.256;9.356;2023-05-08T12:12:50;15.50;;;4.45;;
40072;SDS011;25774;52.256;9.356;2023-05-08T12:15:15;5.77;;;3.77;;
40072;SDS011;25774;52.256;9.356;2023-05-08T12:20:16;5.97;;;4.13;;
40072;SDS011;25774;52.256;9.356;2023-05-08T12:22:48;5.55;;;3.13;;
40072;SDS011;25774;52.256;9.356;2023-05-08T12:25:14;5.68;;;3.50;;
40072;SDS011;25774;52.256;9.356;2023-05-08T12:27:40;5.18;;;3.65;;
40072;SDS011;25774;52.256;9.356;2023-05-08T12:30:06;7.57;;;3.70;;
40072;SDS011;25774;52.256;9.356;2023-05-08T12:32:32;5.10;;;3.63;;
40072;SDS011;25774;52.256;9.356;2023-05-08T12:34:58;4.90;;;3.40;;
40072;SDS011;25774;52.256;9.356;2023-05-08T12:37:27;5.03;;;3.10;;
40072;SDS011;25774;52.256;9.356;2023-05-08T12:39:52;5.32;;;3.65;;
40072;SDS011;25774;52.256;9.356;2023-05-08T12:42:17;5.80;;;3.90;;
40072;SDS011;25774;52.256;9.356;2023-05-08T12:44:48;7.10;;;3.80;;
40072;SDS011;25774;52.256;9.356;2023-05-08T12:47:14;9.70;;;3.83;;
40072;SDS011;25774;52.256;9.356;2023-05-08T12:49:39;6.73;;;4.10;;
40072;SDS011;25774;52.256;9.356;2023-05-08T12:52:05;6.20;;;3.45;;
40072;SDS011;25774;52.256;9.356;2023-05-08T12:54:31;4.93;;;3.58;;
40072;SDS011;25774;52.256;9.356;2023-05-08T12:56:56;6.18;;;3.30;;
40072;SDS011;25774;52.256;9.356;2023-05-08T12:59:32;5.90;;;4.00;;
40072;SDS011;25774;52.256;9.356;2023-05-08T13:01:57;6.50;;;3.80;;
40072;SDS011;25774;52.256;9.356;2023-05-08T13:04:22;4.97;;;3.70;;
40072;SDS011;25774;52.256;9.356;2023-05-08T13:06:54;6.25;;;3.22;;
40072;SDS011;25774;52.256;9.356;2023-05-08T13:09:19;8.40;;;3.40;;
40072;SDS011;25774;52.256;9.356;2023-05-08T13:11:45;6.00;;;3.35;;
40072;SDS011;25774;52.256;9.356;2023-05-08T13:14:10;6.93;;;3.17;;
40072;SDS011;25774;52.256;9.356;2023-05-08T13:16:45;5.87;;;3.67;;
40072;SDS011;25774;52.256;9.356;2023-05-08T13:19:11;5.60;;;3.58;;
40072;SDS011;25774;52.256;9.356;2023-05-08T13:21:36;12.45;;;3.78;;
40072;SDS011;25774;52.256;9.356;2023-05-08T13:24:02;4.90;;;3.22;;
40072;SDS011;25774;52.256;9.356;2023-05-08T13:26:28;8.30;;;3.83;;
40072;SDS011;25774;52.256;9.356;2023-05-08T13:28:53;4.97;;;3.67;;
40072;SDS011;25774;52.256;9.356;2023-05-08T13:31:18;5.37;;;4.27;;
40072;SDS011;25774;52.256;9.356;2023-05-08T13:33:43;66.20;;;6.90;;
40072;SDS011;25774;52.256;9.356;2023-05-08T13:36:08;8.85;;;3.83;;
40072;SDS011;25774;52.256;9.356;2023-05-08T13:38:34;9.43;;;5.33;;
40072;SDS011;25774;52.256;9.356;2023-05-08T13:40:59;5.33;;;3.53;;
40072;SDS011;25774;52.256;9.356;2023-05-08T13:43:24;7.73;;;4.03;;
40072;SDS011;25774;52.256;9.356;2023-05-08T13:45:49;5.60;;;3.80;;
40072;SDS011;25774;52.256;9.356;2023-05-08T13:48:16;5.05;;;3.42;;
40072;SDS011;25774;52.256;9.356;2023-05-08T13:50:41;7.38;;;3.45;;
40072;SDS011;25774;52.256;9.356;2023-05-08T13:53:06;4.60;;;2.90;;
40072;SDS011;25774;52.256;9.356;2023-05-08T13:55:32;6.30;;;3.93;;
40072;SDS011;25774;52.256;9.356;2023-05-08T13:57:57;6.43;;;3.35;;
40072;SDS011;25774;52.256;9.356;2023-05-08T14:00:22;6.47;;;3.67;;
40072;SDS011;25774;52.256;9.356;2023-05-08T14:02:48;5.07;;;3.20;;
40072;SDS011;25774;52.256;9.356;2023-05-08T14:05:13;13.10;;;4.93;;
40072;SDS011;25774;52.256;9.356;2023-05-08T14:07:38;5.53;;;3.40;;
40072;SDS011;25774;52.256;9.356;2023-05-08T14:10:03;4.90;;;3.53;;
40072;SDS011;25774;52.256;9.356;2023-05-08T14:12:29;5.00;;;3.53;;
40072;SDS011;25774;52.256;9.356;2023-05-08T14:14:54;5.10;;;3.58;;
40072;SDS011;25774;52.256;9.356;2023-05-08T14:17:19;5.00;;;3.50;;
40072;SDS011;25774;52.256;9.356;2023-05-08T14:19:45;5.93;;;3.60;;
40072;SDS011;25774;52.256;9.356;2023-05-08T14:22:10;5.28;;;3.53;;
40072;SDS011;25774;52.256;9.356;2023-05-08T14:24:35;5.05;;;3.67;;
40072;SDS011;25774;52.256;9.356;2023-05-08T14:27:00;5.50;;;3.17;;
40072;SDS011;25774;52.256;9.356;2023-05-08T14:29:29;4.10;;;3.08;;
40072;SDS011;25774;52.256;9.356;2023-05-08T14:31:55;4.80;;;3.45;;
40072;SDS011;25774;52.256;9.356;2023-05-08T14:34:20;4.53;;;3.67;;
40072;SDS011;25774;52.256;9.356;2023-05-08T14:36:45;5.07;;;3.63;;
40072;SDS011;25774;52.256;9.356;2023-05-08T14:39:10;8.68;;;4.05;;
40072;SDS011;25774;52.256;9.356;2023-05-08T14:41:37;8.43;;;3.47;;
40072;SDS011;25774;52.256;9.356;2023-05-08T14:44:03;5.07;;;3.70;;
40072;SDS011;25774;52.256;9.356;2023-05-08T14:46:29;4.90;;;3.75;;
40072;SDS011;25774;52.256;9.356;2023-05-08T14:48:54;6.20;;;3.63;;
40072;SDS011;25774;52.256;9.356;2023-05-08T14:51:19;5.30;;;3.70;;
40072;SDS011;25774;52.256;9.356;2023-05-08T14:53:44;5.55;;;4.03;;
40072;SDS011;25774;52.256;9.356;2023-05-08T14:56:10;4.80;;;3.20;;
40072;SDS011;25774;52.256;9.356;2023-05-08T14:58:36;6.90;;;4.00;;
40072;SDS011;25774;52.256;9.356;2023-05-08T15:01:01;4.65;;;3.28;;
40072;SDS011;25774;52.256;9.356;2023-05-08T15:03:27;5.13;;;3.37;;
40072;SDS011;25774;52.256;9.356;2023-05-08T15:05:52;5.43;;;3.23;;
40072;SDS011;25774;52.256;9.356;2023-05-08T15:08:17;13.20;;;4.05;;
40072;SDS011;25774;52.256;9.356;2023-05-08T15:10:43;6.43;;;3.60;;
40072;SDS011;25774;52.256;9.356;2023-05-08T15:13:09;11.05;;;3.20;;
40072;SDS011;25774;52.256;9.356;2023-05-08T15:15:34;7.43;;;3.90;;
40072;SDS011;25774;52.256;9.356;2023-05-08T15:17:59;6.60;;;4.13;;
40072;SDS011;25774;52.256;9.356;2023-05-08T15:20:24;5.87;;;3.93;;
40072;SDS011;25774;52.256;9.356;2023-05-08T15:22:49;13.90;;;3.47;;
40072;SDS011;25774;52.256;9.356;2023-05-08T15:25:15;8.63;;;3.70;;
40072;SDS011;25774;52.256;9.356;2023-05-08T15:27:40;4.83;;;3.37;;
40072;SDS011;25774;52.256;9.356;2023-05-08T15:30:06;5.93;;;3.58;;
40072;SDS011;25774;52.256;9.356;2023-05-08T15:32:32;4.03;;;3.03;;
40072;SDS011;25774;52.256;9.356;2023-05-08T15:34:59;4.90;;;3.85;;
40072;SDS011;25774;52.256;9.356;2023-05-08T15:37:24;4.30;;;3.00;;
40072;SDS011;25774;52.256;9.356;2023-05-08T15:39:49;4.57;;;3.37;;
40072;SDS011;25774;52.256;9.356;2023-05-08T15:42:14;5.82;;;3.17;;
40072;SDS011;25774;52.256;9.356;2023-05-08T15:44:40;6.87;;;3.70;;
40072;SDS011;25774;52.256;9.356;2023-05-08T15:47:05;4.40;;;3.03;;